Time;durP1;ratioP1;P1;durP2;ratioP2;P2;SDS_P1;SDS_P2;PMS_P1;PMS_P2;Temp;Humidity;BMP_temperature;BMP_pressure;BME280_temperature;BME280_humidity;BME280_pressure;Samples;Min_cycle;Max_cycle;Signal;HPM_P1;HPM_P2
2022/08/31 00:05:48;;;;;;;;;;;;;;;22.06;58.16;95445.97;5031798;28;20012;-66
2022/08/31 00:08:14;;;;;;;;;;;;;;;21.72;59.25;95447.13;5030050;28;20436;-67
2022/08/31 00:10:40;;;;;;;;;;;;;;;21.64;59.59;95440.81;5031461;28;20183;-67
2022/08/31 00:13:06;;;;;;;;;;;;;;;21.78;58.91;95441.00;5031292;28;20010;-67
2022/08/31 00:15:31;;;;;;;;;;;;;;;21.79;58.54;95444.47;5050473;28;20543;-67
2022/08/31 00:17:57;;;;;;;;;;;;;;;21.76;58.65;95445.22;5051118;28;20052;-67
2022/08/31 00:20:22;;;;;;;;;;;;;;;21.78;58.90;95446.41;5050129;28;20017;-68
2022/08/31 00:22:48;;;;;;;;;;;;;;;21.85;58.61;95456.53;5050755;28;20009;-68
2022/08/31 00:25:13;;;;;;;;;;;;;;;21.74;58.77;95450.22;5047626;28;20010;-68
2022/08/31 00:27:38;;;;;;;;;;;;;;;21.45;59.88;95451.78;5050278;28;20014;-68
2022/08/31 00:30:06;;;;;;;;;;;;;;;21.65;59.31;95457.84;5050586;28;20143;-67
2022/08/31 00:32:31;;;;;;;;;;;;;;;21.65;59.34;95452.41;5049253;28;20020;-68
2022/08/31 00:34:57;;;;;;;;;;;;;;;21.75;58.96;95457.19;5049721;28;20017;-68
2022/08/31 00:37:22;;;;;;;;;;;;;;;21.75;59.00;95451.78;5050636;28;20095;-68
2022/08/31 00:39:47;;;;;;;;;;;;;;;21.89;58.72;95453.88;5049160;28;20010;-68
2022/08/31 00:42:12;;;;;;;;;;;;;;;21.94;58.48;95450.84;5050177;28;20106;-68
2022/08/31 00:44:38;;;;;;;;;;;;;;;21.99;58.36;95455.94;5048168;28;20022;-69
2022/08/31 00:47:03;;;;;;;;;;;;;;;21.82;58.78;95451.88;5048384;28;20389;-69
2022/08/31 00:49:30;;;;;;;;;;;;;;;21.67;59.27;95450.91;5048853;28;20025;-68
2022/08/31 00:52:11;;;;;;;;;;;;;;;21.23;60.62;95448.72;5048836;28;20018;-68
2022/08/31 00:54:42;;;;;;;;;;;;;;;21.41;60.28;95446.31;5046469;28;20071;-68
2022/08/31 00:57:08;;;;;;;;;;;;;;;21.58;60.11;95445.00;5050263;28;20020;-68
2022/08/31 00:59:34;;;;;;;;;;;;;;;21.54;60.11;95439.53;5050294;28;20478;-69
2022/08/31 01:02:00;;;;;;;;;;;;;;;21.57;60.08;95438.03;5050155;28;20052;-68
2022/08/31 01:04:25;;;;;;;;;;;;;;;21.50;60.33;95440.66;5047072;28;20013;-68
2022/08/31 01:06:50;;;;;;;;;;;;;;;;;;5048101;28;20631;-68
2022/08/31 01:09:18;;;;;;;;;;;;;;;21.72;59.62;95431.66;5050140;28;20021;-68
2022/08/31 01:11:43;;;;;;;;;;;;;;;21.81;59.13;95436.78;5048686;28;20016;-68
2022/08/31 01:14:09;;;;;;;;;;;;;;;21.80;59.33;95432.50;5048583;28;20386;-67
2022/08/31 01:16:41;;;;;;;;;;;;;;;21.80;59.25;95430.59;5050078;28;20017;-68
2022/08/31 01:19:10;;;;;;;;;;;;;;;21.93;58.68;95433.81;5048238;28;20010;-68
2022/08/31 01:21:38;;;;;;;;;;;;;;;22.04;58.70;95447.50;5048504;28;20018;-68
2022/08/31 01:24:05;;;;;;;;;;;;;;;22.09;58.47;95447.16;5049218;28;20075;-69
2022/08/31 01:26:31;;;;;;;;;;;;;;;22.07;58.57;95452.19;5047749;28;20490;-68
2022/08/31 01:28:59;;;;;;;;;;;;;;;22.15;58.20;95447.63;5048589;28;20010;-68
2022/08/31 01:31:30;;;;;;;;;;;;;;;22.14;58.33;95452.28;5048639;28;20020;-68
2022/08/31 01:33:55;;;;;;;;;;;;;;;22.13;58.23;95445.31;5047289;28;20017;-68
2022/08/31 01:36:21;;;;;;;;;;;;;;;22.10;58.26;95443.28;5048856;28;20036;-68
2022/08/31 01:38:46;;;;;;;;;;;;;;;22.13;58.25;95439.88;5049746;28;20012;-68
2022/08/31 01:41:11;;;;;;;;;;;;;;;22.17;58.01;95439.94;5048217;28;20017;-68
2022/08/31 01:43:37;;;;;;;;;;;;;;;22.19;57.76;95432.97;5047835;28;20017;-68
2022/08/31 01:46:04;;;;;;;;;;;;;;;22.22;57.72;95428.75;5047750;28;20014;-68
2022/08/31 01:48:29;;;;;;;;;;;;;;;22.21;57.81;95441.50;5048557;28;20032;-68
2022/08/31 01:50:55;;;;;;;;;;;;;;;22.23;57.55;95433.03;5047644;28;20018;-69
2022/08/31 01:53:20;;;;;;;;;;;;;;;22.17;57.86;95429.88;5047974;28;20017;-68
2022/08/31 01:55:45;;;;;;;;;;;;;;;22.10;57.78;95431.69;5048211;28;20231;-68
2022/08/31 01:58:11;;;;;;;;;;;;;;;22.13;58.01;95431.75;5047647;28;20020;-68
2022/08/31 02:00:37;;;;;;;;;;;;;;;22.10;57.63;95434.38;5049727;28;20366;-68
2022/08/31 02:03:03;;;;;;;;;;;;;;;21.94;58.24;95429.97;5049369;28;20006;-68
2022/08/31 02:05:29;;;;;;;;;;;;;;;21.92;58.24;95431.50;5048668;28;20100;-68
2022/08/31 02:07:55;;;;;;;;;;;;;;;21.89;58.40;95430.28;5049304;28;20640;-69
2022/08/31 02:10:20;;;;;;;;;;;;;;;21.93;58.18;95431.13;5049606;28;20018;-68
2022/08/31 02:12:45;;;;;;;;;;;;;;;21.87;58.25;95429.13;5047877;28;20021;-68
2022/08/31 02:15:11;;;;;;;;;;;;;;;21.87;58.23;95434.53;5048568;28;21736;-69
2022/08/31 02:17:36;;;;;;;;;;;;;;;21.87;58.25;95429.13;5049411;28;20006;-68
2022/08/31 02:20:02;;;;;;;;;;;;;;;21.77;58.47;95428.63;5047922;28;20067;-68
2022/08/31 02:22:27;;;;;;;;;;;;;;;21.84;58.29;95427.13;5063276;28;20013;-68
2022/08/31 02:24:52;;;;;;;;;;;;;;;21.83;58.18;95420.94;5048012;28;20025;-68
2022/08/31 02:27:18;;;;;;;;;;;;;;;21.86;58.07;95424.84;5047179;28;20072;-68
2022/08/31 02:29:43;;;;;;;;;;;;;;;21.71;58.92;95423.91;5049412;28;20490;-67
2022/08/31 02:32:09;;;;;;;;;;;;;;;21.85;58.20;95426.75;5049022;28;20096;-68
2022/08/31 02:34:35;;;;;;;;;;;;;;;21.89;58.23;95432.22;5047901;28;20478;-68
2022/08/31 02:37:00;;;;;;;;;;;;;;;21.87;58.25;95435.31;5046874;28;20020;-68
2022/08/31 02:39:25;;;;;;;;;;;;;;;21.95;57.89;95434.22;5046366;28;20014;-69
2022/08/31 02:41:50;;;;;;;;;;;;;;;21.97;57.86;95434.66;5048840;28;20020;-68
2022/08/31 02:44:16;;;;;;;;;;;;;;;22.08;57.37;95437.47;5047380;28;20049;-68
2022/08/31 02:46:41;;;;;;;;;;;;;;;22.13;57.48;95439.88;5047210;28;20104;-68
2022/08/31 02:49:06;;;;;;;;;;;;;;;22.10;57.50;95429.75;5052351;28;20041;-68
2022/08/31 02:51:31;;;;;;;;;;;;;;;21.98;58.06;95432.72;5050532;28;20013;-68
2022/08/31 02:53:57;;;;;;;;;;;;;;;22.02;57.76;95428.91;5050858;28;20017;-68
2022/08/31 02:56:22;;;;;;;;;;;;;;;22.07;57.60;95441.34;5052697;28;20006;-68
2022/08/31 02:58:53;;;;;;;;;;;;;;;22.03;57.55;95435.88;5051719;28;20014;-68
2022/08/31 03:01:19;;;;;;;;;;;;;;;21.96;57.82;95430.38;5051417;28;20083;-68
2022/08/31 03:03:44;;;;;;;;;;;;;;;22.01;57.65;95429.28;5050216;28;20483;-68
2022/08/31 03:06:09;;;;;;;;;;;;;;;22.03;57.60;95433.16;5050111;28;20014;-68
2022/08/31 03:08:34;;;;;;;;;;;;;;;22.06;57.40;95435.16;5065761;22;20025;-72
2022/08/31 03:11:00;;;;;;;;;;;;;;;22.09;57.42;95433.63;5052166;28;20021;-72
2022/08/31 03:13:25;;;;;;;;;;;;;;;22.12;57.61;95435.63;5050480;28;20704;-72
2022/08/31 03:15:50;;;;;;;;;;;;;;;22.12;57.35;95427.50;5033126;28;20482;-72
2022/08/31 03:18:16;;;;;;;;;;;;;;;22.15;57.45;95436.78;5034457;28;20024;-71
2022/08/31 03:20:41;;;;;;;;;;;;;;;22.13;57.43;95429.03;5052018;28;20013;-72
2022/08/31 03:23:06;;;;;;;;;;;;;;;22.07;57.63;95430.50;5032937;28;20097;-72
2022/08/31 03:25:31;;;;;;;;;;;;;;;22.03;57.63;95425.03;5034206;28;20017;-71
2022/08/31 03:27:57;;;;;;;;;;;;;;;22.07;57.78;95427.78;5051829;28;20029;-72
2022/08/31 03:30:22;;;;;;;;;;;;;;;22.01;57.66;95423.88;5051225;28;20010;-72
2022/08/31 03:32:49;;;;;;;;;;;;;;;21.94;58.08;95421.06;5051409;28;20010;-72
2022/08/31 03:35:14;;;;;;;;;;;;;;;21.86;58.31;95430.28;5033804;28;20017;-71
2022/08/31 03:37:40;;;;;;;;;;;;;;;21.89;58.14;95430.28;5051206;28;20014;-71
2022/08/31 03:40:06;;;;;;;;;;;;;;;21.86;58.02;95432.97;5051767;28;20033;-71
2022/08/31 03:42:32;;;;;;;;;;;;;;;21.75;58.59;95441.75;5051506;28;20009;-72
2022/08/31 03:44:57;;;;;;;;;;;;;;;21.78;58.29;95441.00;5033892;28;20429;-72
2022/08/31 03:47:22;;;;;;;;;;;;;;;21.85;58.29;95432.16;5033134;28;20493;-72
2022/08/31 03:49:47;;;;;;;;;;;;;;;21.89;58.29;95441.13;5050703;28;20030;-71
2022/08/31 03:52:12;;;;;;;;;;;;;;;21.88;58.31;95447.69;5050263;28;20010;-71
2022/08/31 03:54:38;;;;;;;;;;;;;;;21.97;58.30;95447.41;5051362;28;20057;-72
2022/08/31 03:57:04;;;;;;;;;;;;;;;22.03;58.24;95457.53;5051532;28;20005;-72
2022/08/31 03:59:29;;;;;;;;;;;;;;;22.06;57.98;95458.75;5032785;28;20013;-72
2022/08/31 04:01:54;;;;;;;;;;;;;;;22.09;57.92;95463.41;5051260;28;20006;-71
2022/08/31 04:04:19;;;;;;;;;;;;;;;22.06;58.04;95462.22;5033042;28;20014;-72
2022/08/31 04:06:44;;;;;;;;;;;;;;;22.05;58.06;95468.00;5051408;28;20006;-71
2022/08/31 04:09:10;;;;;;;;;;;;;;;22.08;57.88;95455.66;5050361;28;20018;-72
2022/08/31 04:11:38;;;;;;;;;;;;;;;22.06;57.89;95454.09;5033401;28;20462;-71
2022/08/31 04:14:03;;;;;;;;;;;;;;;21.95;58.29;95455.13;5050367;28;20017;-71
2022/08/31 04:16:31;;;;;;;;;;;;;;;22.00;58.09;95455.56;5033370;28;20387;-72
2022/08/31 04:18:56;;;;;;;;;;;;;;;21.98;58.00;95454.38;5050484;28;20504;-72
2022/08/31 04:21:24;;;;;;;;;;;;;;;21.94;57.88;95464.41;5051315;28;20006;-72
2022/08/31 04:23:50;;;;;;;;;;;;;;;21.98;57.79;95459.81;5032061;28;20118;-72
2022/08/31 04:26:17;;;;;;;;;;;;;;;22.05;57.76;95462.59;5032816;28;20132;-71
2022/08/31 04:28:42;;;;;;;;;;;;;;;22.04;57.47;95464.53;5050814;28;20014;-72
2022/08/31 04:31:07;;;;;;;;;;;;;;;22.03;57.51;95452.13;5050013;28;20432;-71
2022/08/31 04:33:34;;;;;;;;;;;;;;;22.09;57.47;95458.00;5032548;28;20048;-72
2022/08/31 04:35:59;;;;;;;;;;;;;;;22.14;57.50;95462.34;5033020;28;20010;-71
2022/08/31 04:38:25;;;;;;;;;;;;;;;22.14;57.16;95457.69;5031858;28;20059;-72
2022/08/31 04:40:50;;;;;;;;;;;;;;;22.16;57.48;95463.53;5050022;28;20366;-72
2022/08/31 04:43:15;;;;;;;;;;;;;;;22.17;57.29;95462.38;5050527;28;20006;-71
2022/08/31 04:45:41;;;;;;;;;;;;;;;22.18;57.48;95460.44;5050960;28;20010;-71
2022/08/31 04:48:06;;;;;;;;;;;;;;;22.18;57.19;95453.09;5032090;28;20010;-71
2022/08/31 04:50:31;;;;;;;;;;;;;;;22.17;57.46;95456.19;5032985;28;20016;-72
2022/08/31 04:52:56;;;;;;;;;;;;;;;22.14;57.59;95462.34;5031481;28;20020;-77
2022/08/31 04:55:22;;;;;;;;;;;;;;;22.04;57.30;95471.88;5049830;28;20021;-74
2022/08/31 04:57:47;;;;;;;;;;;;;;;22.09;57.54;95466.13;5032748;28;20020;-74
2022/08/31 05:00:12;;;;;;;;;;;;;;;22.18;57.44;95463.16;5032384;28;20052;-74
2022/08/31 05:02:37;;;;;;;;;;;;;;;22.29;57.07;95469.47;5032398;28;20112;-74
2022/08/31 05:05:03;;;;;;;;;;;;;;;22.38;56.91;95471.91;5050761;28;20076;-73
2022/08/31 05:07:28;;;;;;;;;;;;;;;22.48;56.54;95465.81;5032551;28;20363;-74
2022/08/31 05:09:53;;;;;;;;;;;;;;;22.60;56.67;95472.88;5030250;28;20746;-74
2022/08/31 05:12:18;;;;;;;;;;;;;;;22.67;56.10;95473.72;5050106;28;20006;-74
2022/08/31 05:14:44;;;;;;;;;;;;;;;22.77;56.06;95472.25;5050554;28;20108;-74
2022/08/31 05:17:09;;;;;;;;;;;;;;;22.73;56.00;95466.81;5050202;28;20010;-69
2022/08/31 05:19:34;;;;;;;;;;;;;;;22.75;55.99;95475.34;5049614;28;20018;-71
2022/08/31 05:22:00;;;;;;;;;;;;;;;22.79;55.87;95476.16;5050062;28;20010;-70
2022/08/31 05:24:25;;;;;;;;;;;;;;;22.81;55.63;95481.97;5048437;28;20010;-73
2022/08/31 05:26:52;;;;;;;;;;;;;;;22.79;55.97;95476.16;5032050;28;20063;-73
2022/08/31 05:29:19;;;;;;;;;;;;;;;22.84;55.64;95478.53;5048494;28;20010;-70
2022/08/31 05:31:44;;;;;;;;;;;;;;;22.68;56.19;95479.94;5046349;28;20026;-72
2022/08/31 05:34:13;;;;;;;;;;;;;;;22.66;56.16;95482.22;5049479;28;20013;-72
2022/08/31 05:36:40;;;;;;;;;;;;;;;22.86;55.93;95485.50;5048760;28;20036;-73
2022/08/31 05:39:10;;;;;;;;;;;;;;;22.79;56.00;95480.81;5043234;28;20051;-74
2022/08/31 05:41:36;;;;;;;;;;;;;;;22.93;55.76;95480.16;5048687;28;20006;-72
2022/08/31 05:44:02;;;;;;;;;;;;;;;23.01;55.63;95481.78;5029610;28;20009;-72
2022/08/31 05:46:28;;;;;;;;;;;;;;;23.02;55.63;95475.97;5047565;28;20013;-72
2022/08/31 05:48:54;;;;;;;;;;;;;;;23.13;55.38;95480.72;5028924;28;20009;-71
2022/08/31 05:51:19;;;;;;;;;;;;;;;23.01;55.15;95451.94;5049091;28;20375;-71
2022/08/31 05:53:45;;;;;;;;;;;;;;;23.15;55.21;95478.41;5028729;28;20075;-69
2022/08/31 05:56:11;;;;;;;;;;;;;;;22.87;55.76;95479.69;5031735;28;20076;-70
2022/08/31 05:58:37;;;;;;;;;;;;;;;23.07;55.18;95483.00;5048834;28;20437;-71
2022/08/31 06:01:10;;;;;;;;;;;;;;;23.11;55.51;95478.38;5030792;28;20010;-70
2022/08/31 06:03:35;;;;;;;;;;;;;;;23.14;54.96;95482.28;5031416;28;20014;-70
2022/08/31 06:06:01;;;;;;;;;;;;;;;22.87;55.52;95473.50;5030770;28;20637;-69
2022/08/31 06:08:26;;;;;;;;;;;;;;;23.21;54.76;95477.69;5031577;28;20010;-70
2022/08/31 06:10:51;;;;;;;;;;;;;;;23.29;54.56;95482.03;5039903;28;20128;-70
2022/08/31 06:13:17;;;;;;;;;;;;;;;23.59;53.86;95484.50;5041898;28;20461;-70
2022/08/31 06:15:42;;;;;;;;;;;;;;;23.68;53.68;95486.16;5052439;28;20430;-70
2022/08/31 06:18:08;;;;;;;;;;;;;;;23.88;52.83;95478.50;5043440;28;20006;-69
2022/08/31 06:20:37;;;;;;;;;;;;;;;23.89;52.41;95490.91;5046644;28;20014;-70
2022/08/31 06:23:06;;;;;;;;;;;;;;;23.67;53.04;95490.03;5048376;28;20044;-69
2022/08/31 06:25:32;;;;;;;;;;;;;;;23.73;53.22;95488.50;5034206;28;20017;-70
2022/08/31 06:27:58;;;;;;;;;;;;;;;23.62;53.03;95483.00;5032255;28;20161;-70
2022/08/31 06:30:25;;;;;;;;;;;;;;;23.63;52.95;95492.72;5033579;28;20035;-69
2022/08/31 06:32:51;;;;;;;;;;;;;;;23.72;53.13;95497.81;5050043;28;20010;-70
2022/08/31 06:35:16;;;;;;;;;;;;;;;23.72;53.02;95495.88;5031189;28;20021;-70
2022/08/31 06:37:41;;;;;;;;;;;;;;;23.53;53.67;95498.84;5032849;28;20120;-70
2022/08/31 06:40:07;;;;;;;;;;;;;;;23.53;53.40;95505.03;5052076;28;20009;-69
2022/08/31 06:42:32;;;;;;;;;;;;;;;23.39;53.78;95504.97;5051463;28;20009;-70
2022/08/31 06:44:57;;;;;;;;;;;;;;;23.30;54.19;95505.28;5032147;28;20025;-70
2022/08/31 06:47:23;;;;;;;;;;;;;;;23.23;54.01;95505.22;5034174;28;20025;-70
2022/08/31 06:49:48;;;;;;;;;;;;;;;22.81;55.21;95503.69;5047398;28;20014;-70
2022/08/31 06:52:13;;;;;;;;;;;;;;;22.99;55.10;95511.25;5032287;28;20032;-69
2022/08/31 06:54:39;;;;;;;;;;;;;;;22.99;54.79;95511.25;5049687;28;20421;-69
2022/08/31 06:57:05;;;;;;;;;;;;;;;23.05;54.94;95510.50;5031067;28;20527;-69
2022/08/31 06:59:31;;;;;;;;;;;;;;;23.16;54.59;95518.75;5051798;28;20096;-70
2022/08/31 07:01:58;;;;;;;;;;;;;;;23.35;54.37;95517.72;5030846;28;20064;-71
2022/08/31 07:04:23;;;;;;;;;;;;;;;23.41;54.18;95510.00;5032709;28;20010;-71
2022/08/31 07:06:48;;;;;;;;;;;;;;;23.21;54.56;95512.97;5051527;28;20016;-70
2022/08/31 07:09:16;;;;;;;;;;;;;;;23.41;54.00;95512.72;5033723;28;20048;-71
2022/08/31 07:11:43;;;;;;;;;;;;;;;23.41;53.85;95512.72;5048986;28;20501;-71
2022/08/31 07:14:11;;;;;;;;;;;;;;;23.38;54.13;95510.75;5048431;28;20022;-71
2022/08/31 07:16:36;;;;;;;;;;;;;;;23.57;53.71;95522.16;5027808;28;20014;-70
2022/08/31 07:19:02;;;;;;;;;;;;;;;23.20;53.84;95521.50;5032638;28;20360;-71
2022/08/31 07:21:30;;;;;;;;;;;;;;;23.52;53.69;95519.00;5034288;28;20497;-71
2022/08/31 07:23:56;;;;;;;;;;;;;;;23.47;53.61;95524.78;5032389;28;20097;-71
2022/08/31 07:26:24;;;;;;;;;;;;;;;23.45;53.82;95522.47;5049833;28;20014;-71
2022/08/31 07:28:53;;;;;;;;;;;;;;;23.19;54.01;95515.28;5034117;28;20770;-71
2022/08/31 07:31:23;;;;;;;;;;;;;;;23.24;53.93;95520.38;5046570;28;20009;-71
2022/08/31 07:33:49;;;;;;;;;;;;;;;23.07;54.58;95518.28;5046013;28;20100;-71
2022/08/31 07:36:15;;;;;;;;;;;;;;;23.20;53.87;95530.41;5029919;28;20035;-70
2022/08/31 07:44:09;;;;;;;;;;;;;;;23.79;52.71;95528.50;5051506;28;20056;-71
2022/08/31 07:46:35;;;;;;;;;;;;;;;24.04;51.99;95527.88;5045250;28;20013;-71
2022/08/31 07:49:00;;;;;;;;;;;;;;;24.24;51.62;95533.78;5033402;28;20120;-71
2022/08/31 07:51:25;;;;;;;;;;;;;;;24.42;51.13;95531.94;5033749;28;20016;-72
2022/08/31 07:53:51;;;;;;;;;;;;;;;24.65;50.77;95537.06;5031055;28;20448;-72
2022/08/31 07:56:16;;;;;;;;;;;;;;;24.81;50.00;95534.75;5032830;28;20020;-72
2022/08/31 07:58:42;;;;;;;;;;;;;;;24.57;50.03;95538.22;5033706;28;20101;-71
2022/08/31 08:01:08;;;;;;;;;;;;;;;24.25;51.47;95538.81;5050670;28;20014;-71
2022/08/31 08:03:33;;;;;;;;;;;;;;;24.74;50.53;95539.41;5048898;28;20039;-71
2022/08/31 08:05:58;;;;;;;;;;;;;;;24.98;49.33;95532.44;5049862;28;20013;-70
2022/08/31 08:08:24;;;;;;;;;;;;;;;25.15;48.94;95531.72;5033515;28;20920;-72
2022/08/31 08:10:49;;;;;;;;;;;;;;;25.18;48.59;95530.16;5040885;28;20021;-70
2022/08/31 08:13:18;;;;;;;;;;;;;;;25.13;48.69;95523.94;5045298;28;20010;-69
2022/08/31 08:15:44;;;;;;;;;;;;;;;24.93;49.00;95547.22;5029616;28;20014;-70
2022/08/31 08:18:11;;;;;;;;;;;;;;;25.09;49.10;95541.44;5030840;28;20605;-70
2022/08/31 08:20:36;;;;;;;;;;;;;;;25.05;48.69;95548.78;5046440;28;20056;-70
2022/08/31 08:23:01;;;;;;;;;;;;;;;24.75;49.45;95549.13;5031722;28;20099;-71
2022/08/31 08:25:27;;;;;;;;;;;;;;;24.45;50.43;95554.84;5046568;28;20060;-71
2022/08/31 08:27:53;;;;;;;;;;;;;;;24.33;50.85;95558.69;5046575;28;20010;-71
2022/08/31 08:30:18;;;;;;;;;;;;;;;24.47;50.14;95556.06;5028814;28;20014;-71
2022/08/31 08:32:43;;;;;;;;;;;;;;;24.11;51.23;95553.16;5046311;28;20044;-72
2022/08/31 08:35:09;;;;;;;;;;;;;;;24.14;50.94;95557.03;5047839;28;20013;-72
2022/08/31 08:37:36;;;;;;;;;;;;;;;24.57;50.33;95560.75;5047909;28;20014;-72
2022/08/31 08:40:04;;;;;;;;;;;;;;;24.95;49.68;95560.44;5031837;28;20010;-71
2022/08/31 08:42:29;;;;;;;;;;;;;;;24.93;49.85;95558.13;5049930;28;20016;-73
2022/08/31 08:44:55;;;;;;;;;;;;;;;24.99;49.49;95561.22;5050143;28;20010;-72
2022/08/31 08:47:24;;;;;;;;;;;;;;;25.30;48.80;95557.00;5048037;28;20448;-72
2022/08/31 08:49:53;;;;;;;;;;;;;;;25.82;48.29;95551.94;5049729;28;20486;-73
2022/08/31 08:52:18;;;;;;;;;;;;;;;25.47;47.82;95558.94;5032677;28;20014;-72
2022/08/31 08:54:45;;;;;;;;;;;;;;;25.57;47.61;95563.59;5032402;28;20024;-72
2022/08/31 08:57:13;;;;;;;;;;;;;;;26.00;47.41;95568.25;5047713;28;20020;-72
2022/08/31 08:59:39;;;;;;;;;;;;;;;26.40;45.96;95565.00;5026426;28;20013;-73
2022/08/31 09:02:05;;;;;;;;;;;;;;;26.72;44.10;95568.78;5042284;28;20053;-72
2022/08/31 09:04:41;;;;;;;;;;;;;;;27.13;44.35;95566.25;5048365;28;20013;-72
2022/08/31 09:07:25;;;;;;;;;;;;;;;27.71;43.81;95568.13;5027296;28;20358;-72
2022/08/31 09:10:09;;;;;;;;;;;;;;;28.28;42.50;95576.94;5043372;28;20013;-73
2022/08/31 09:12:43;;;;;;;;;;;;;;;28.31;40.42;95573.41;5041797;28;20064;-73
2022/08/31 09:15:35;;;;;;;;;;;;;;;28.38;40.74;95567.88;5048483;28;20394;-75
2022/08/31 09:18:16;;;;;;;;;;;;;;;28.79;39.78;95565.00;5030049;28;20007;-72
2022/08/31 09:20:41;;;;;;;;;;;;;;;28.97;39.90;95570.25;5016284;28;20100;-72
2022/08/31 09:23:07;;;;;;;;;;;;;;;29.15;38.65;95564.53;5025902;28;20205;-72
2022/08/31 09:25:43;;;;;;;;;;;;;;;29.31;38.44;95570.16;5045792;28;20064;-72
2022/08/31 09:28:10;;;;;;;;;;;;;;;28.88;38.79;95568.00;5060659;22;20064;-67
2022/08/31 09:30:35;;;;;;;;;;;;;;;28.93;37.25;95570.28;5041365;28;22188;-67
2022/08/31 09:33:00;;;;;;;;;;;;;;;29.10;37.62;95565.00;5030843;28;20014;-68
2022/08/31 09:35:29;;;;;;;;;;;;;;;29.03;38.26;95559.63;5056498;28;20023;-66
2022/08/31 09:38:00;;;;;;;;;;;;;;;29.05;38.74;95560.75;5069548;28;20006;-66
2022/08/31 09:40:40;;;;;;;;;;;;;;;29.38;37.38;95556.34;5054628;28;20367;-65
2022/08/31 09:43:36;;;;;;;;;;;;;;;29.37;37.09;95552.03;5047865;28;20111;-65
2022/08/31 09:46:07;;;;;;;;;;;;;;;29.57;37.90;95560.38;5028162;28;20013;-67
2022/08/31 09:48:50;;;;;;;;;;;;;;;29.70;36.42;95569.56;5047066;28;20017;-67
2022/08/31 09:51:28;;;;;;;;;;;;;;;29.90;36.56;95555.13;5049696;28;20010;-67
2022/08/31 09:57:01;;;;;;;;;;;;;;;30.22;36.17;95555.31;5050159;28;20421;-67
2022/08/31 09:59:32;;;;;;;;;;;;;;;29.95;36.28;95563.63;5048401;28;20014;-67
2022/08/31 10:01:59;;;;;;;;;;;;;;;29.84;36.14;95565.00;5051831;28;20100;-67
2022/08/31 10:04:31;;;;;;;;;;;;;;;29.70;37.34;95557.81;5044147;28;20521;-67
2022/08/31 10:07:10;;;;;;;;;;;;;;;29.72;37.45;95561.66;5043751;28;20784;-67
2022/08/31 10:09:36;;;;;;;;;;;;;;;28.09;37.78;95565.41;5049973;28;20428;-66
2022/08/31 10:12:04;;;;;;;;;;;;;;;27.13;40.39;95561.56;5053253;28;20051;-66
2022/08/31 10:14:35;;;;;;;;;;;;;;;27.68;40.21;95568.13;5050585;28;20024;-67
2022/08/31 10:17:13;;;;;;;;;;;;;;;27.94;39.55;95570.25;5050331;28;20024;-66
2022/08/31 10:19:55;;;;;;;;;;;;;;;28.08;39.75;95568.56;5049903;28;20013;-67
2022/08/31 10:22:29;;;;;;;;;;;;;;;27.94;39.74;95567.50;5048412;28;20020;-66
2022/08/31 10:25:03;;;;;;;;;;;;;;;27.08;40.17;95570.19;5045991;28;20012;-68
2022/08/31 10:27:37;;;;;;;;;;;;;;;26.69;41.07;95573.88;5052922;28;20020;-68
2022/08/31 10:30:16;;;;;;;;;;;;;;;27.02;40.65;95579.13;5049536;28;20101;-68
2022/08/31 10:32:48;;;;;;;;;;;;;;;25.98;42.07;95579.53;5048104;28;20462;-66
2022/08/31 10:35:15;;;;;;;;;;;;;;;25.62;43.77;95579.56;5048209;28;20040;-66
2022/08/31 10:37:42;;;;;;;;;;;;;;;25.98;43.43;95579.53;5047928;28;20539;-66
2022/08/31 10:40:10;;;;;;;;;;;;;;;25.53;44.87;95583.84;5050122;28;20017;-66
2022/08/31 10:42:38;;;;;;;;;;;;;;;25.57;44.24;95585.41;5051286;28;20104;-66
2022/08/31 10:45:08;;;;;;;;;;;;;;;25.49;44.59;95585.78;5050541;28;20363;-67
2022/08/31 10:47:40;;;;;;;;;;;;;;;25.72;44.28;95588.91;5032861;28;20061;-67
2022/08/31 10:50:06;;;;;;;;;;;;;;;25.80;44.15;95590.47;5032498;28;20537;-67
2022/08/31 10:52:33;;;;;;;;;;;;;;;25.74;44.03;95600.16;5047838;28;20104;-67
2022/08/31 10:55:08;;;;;;;;;;;;;;;25.81;43.99;95604.88;5047519;28;20158;-67
2022/08/31 10:58:10;;;;;;;;;;;;;;;25.89;44.24;95604.47;5052040;28;20393;-67
2022/08/31 11:00:57;;;;;;;;;;;;;;;26.00;43.69;95604.47;4971885;28;20010;-67
2022/08/31 11:03:22;;;;;;;;;;;;;;;26.12;44.22;95597.81;5054258;28;20010;-67
2022/08/31 11:05:57;;;;;;;;;;;;;;;26.28;43.73;95602.84;5050034;28;20412;-68
2022/08/31 11:08:48;;;;;;;;;;;;;;;26.39;44.20;95606.31;5048108;28;20031;-68
2022/08/31 11:11:34;;;;;;;;;;;;;;;26.41;44.35;95604.75;5041142;28;20037;-67
2022/08/31 11:14:13;;;;;;;;;;;;;;;26.27;45.29;95598.56;5040591;28;20013;-67
2022/08/31 11:16:48;;;;;;;;;;;;;;;26.12;46.34;95611.47;5052349;28;20012;-67
2022/08/31 11:19:29;;;;;;;;;;;;;;;25.87;47.46;95609.53;5051002;28;20458;-67
2022/08/31 11:22:05;;;;;;;;;;;;;;;25.57;49.25;95607.19;5050438;28;20017;-66
2022/08/31 11:24:30;;;;;;;;;;;;;;;25.23;50.37;95617.66;5052074;28;20480;-67
2022/08/31 11:27:04;;;;;;;;;;;;;;;24.89;51.97;95623.41;5051710;28;20110;-67
2022/08/31 11:29:32;;;;;;;;;;;;;;;24.67;52.17;95627.22;5049634;28;20162;-67
2022/08/31 11:32:16;;;;;;;;;;;;;;;24.52;52.92;95631.03;5051755;28;20006;-67
2022/08/31 11:34:50;;;;;;;;;;;;;;;24.36;54.33;95634.06;5051821;28;20020;-67
2022/08/31 11:37:33;;;;;;;;;;;;;;;24.04;55.54;95633.84;5051001;28;20548;-66
2022/08/31 11:39:59;;;;;;;;;;;;;;;23.72;56.76;95634.41;5050454;28;20347;-68
2022/08/31 11:42:31;;;;;;;;;;;;;;;23.29;57.21;95631.31;5052201;28;20017;-66
2022/08/31 11:44:59;;;;;;;;;;;;;;;23.08;57.77;95629.16;5051745;28;20013;-67
2022/08/31 11:47:27;;;;;;;;;;;;;;;22.83;59.08;95628.88;5051558;28;20015;-67
2022/08/31 11:49:54;;;;;;;;;;;;;;;22.66;59.33;95626.72;5050839;28;20053;-68
2022/08/31 11:52:19;;;;;;;;;;;;;;;22.68;59.82;95624.44;5051729;28;20014;-66
2022/08/31 11:54:47;;;;;;;;;;;;;;;22.58;60.56;95634.00;5050424;28;20061;-67
2022/08/31 11:57:16;;;;;;;;;;;;;;;22.48;60.89;95639.28;5051302;28;20014;-66
2022/08/31 11:59:45;;;;;;;;;;;;;;;22.34;61.12;95639.88;5049901;28;20470;-68
2022/08/31 12:02:20;;;;;;;;;;;;;;;21.97;62.62;95642.44;5051537;28;20021;-65
2022/08/31 12:04:46;;;;;;;;;;;;;;;22.11;63.81;95645.38;5050762;28;20072;-67
2022/08/31 12:07:27;;;;;;;;;;;;;;;22.30;64.80;95639.81;5050845;28;20014;-67
2022/08/31 12:09:52;;;;;;;;;;;;;;;22.34;63.85;95641.81;5050205;28;20016;-67
2022/08/31 12:12:23;;;;;;;;;;;;;;;22.33;64.61;95641.03;5050091;28;20010;-66
2022/08/31 12:14:55;;;;;;;;;;;;;;;22.05;64.08;95655.69;5049678;28;20024;-68
2022/08/31 12:17:29;;;;;;;;;;;;;;;20.75;68.76;95664.66;5050321;28;20020;-67
2022/08/31 12:20:14;;;;;;;;;;;;;;;19.75;72.03;95664.38;5051666;28;20580;-67
2022/08/31 12:25:53;;;;;;;;;;;;;;;20.29;72.68;95657.50;5055254;28;20031;-67
2022/08/31 12:28:22;;;;;;;;;;;;;;;20.51;71.29;95664.94;5069915;28;20020;-67
2022/08/31 12:30:53;;;;;;;;;;;;;;;20.99;71.43;95665.50;5052025;28;20009;-67
2022/08/31 12:33:21;;;;;;;;;;;;;;;21.28;72.17;95664.09;5049312;28;20389;-66
2022/08/31 12:35:48;;;;;;;;;;;;;;;21.49;71.91;95666.41;5048890;28;20017;-67
2022/08/31 12:38:25;;;;;;;;;;;;;;;21.58;71.35;95677.00;5051330;28;20006;-67
2022/08/31 12:40:54;;;;;;;;;;;;;;;21.61;71.82;95684.41;5049752;28;20079;-65
2022/08/31 12:43:21;;;;;;;;;;;;;;;21.07;69.80;95699.66;5049353;28;20505;-66
2022/08/31 12:45:52;;;;;;;;;;;;;;;19.73;75.52;95691.72;5050189;28;20501;-68
2022/08/31 12:48:17;;;;;;;;;;;;;;;19.11;79.61;95679.72;5051206;28;20036;-70
2022/08/31 12:50:48;;;;;;;;;;;;;;;19.68;79.42;95680.41;5051205;28;20473;-65
2022/08/31 12:53:32;;;;;;;;;;;;;;;19.39;79.42;95684.28;5045641;28;20016;-69
2022/08/31 12:56:07;;;;;;;;;;;;;;;18.66;81.11;95690.78;5049638;28;20025;-68
2022/08/31 12:58:32;;;;;;;;;;;;;;;18.98;81.52;95674.72;5046686;28;20009;-68
2022/08/31 13:01:06;;;;;;;;;;;;;;;19.28;81.54;95677.81;5049374;28;20389;-68
2022/08/31 13:03:31;;;;;;;;;;;;;;;19.50;80.78;95674.56;5034844;28;20017;-68
2022/08/31 13:06:02;;;;;;;;;;;;;;;20.01;80.41;95677.31;5047163;28;20083;-68
2022/08/31 13:08:32;;;;;;;;;;;;;;;19.99;79.85;95680.38;5035627;28;20022;-68